createdAt,value
2023-02-14T00:00:28.235Z,9.82
2023-02-14T00:03:30.400Z,9.20
2023-02-14T00:06:35.379Z,10.15
2023-02-14T00:09:38.181Z,10.07
2023-02-14T00:12:40.431Z,10.45
2023-02-14T00:15:42.562Z,11.07
2023-02-14T00:19:03.395Z,28.63
2023-02-14T00:22:06.209Z,19.45
2023-02-14T00:25:08.566Z,14.18
2023-02-14T00:28:10.753Z,11.35
2023-02-14T00:31:13.098Z,8.98
2023-02-14T00:34:17.483Z,8.52
2023-02-14T00:37:19.661Z,13.70
2023-02-14T00:40:21.865Z,13.40
2023-02-14T00:43:24.134Z,10.23
2023-02-14T00:46:27.226Z,13.70
2023-02-14T00:49:29.345Z,11.45
2023-02-14T00:52:31.786Z,9.80
2023-02-14T00:55:33.956Z,18.45
2023-02-14T00:58:36.503Z,16.45
2023-02-14T01:01:39.238Z,9.73
2023-02-14T01:04:41.452Z,15.55
2023-02-14T01:07:43.578Z,17.92
2023-02-14T01:10:46.270Z,21.88
2023-02-14T01:13:50.108Z,23.25
2023-02-14T01:16:52.292Z,22.35
2023-02-14T01:19:54.670Z,28.67
2023-02-14T01:22:56.814Z,30.48
2023-02-14T01:25:58.911Z,25.90
2023-02-14T01:29:01.460Z,16.02
2023-02-14T01:32:03.885Z,18.60
2023-02-14T01:35:06.378Z,20.27
2023-02-14T01:38:08.449Z,19.63
2023-02-14T01:41:11.102Z,12.20
2023-02-14T01:44:16.911Z,11.43
2023-02-14T01:47:19.022Z,9.80
2023-02-14T01:50:28.538Z,9.18
2023-02-14T01:53:30.970Z,12.05
2023-02-14T01:56:42.873Z,12.75
2023-02-14T01:59:49.625Z,13.27
2023-02-14T02:02:52.433Z,13.00
2023-02-14T02:06:02.479Z,14.18
2023-02-14T02:09:19.242Z,14.15
2023-02-14T02:12:21.902Z,13.75
2023-02-14T02:15:27.048Z,13.45
2023-02-14T02:19:10.188Z,14.63
2023-02-14T02:22:27.385Z,13.77
2023-02-14T02:25:38.855Z,12.32
2023-02-14T02:29:04.589Z,14.35
2023-02-14T02:32:16.152Z,12.25
2023-02-14T02:35:49.187Z,12.13
2023-02-14T02:38:51.478Z,12.35
2023-02-14T02:42:28.863Z,13.93
2023-02-14T02:46:18.563Z,16.10
2023-02-14T02:49:50.898Z,15.70
2023-02-14T02:53:08.012Z,17.27
2023-02-14T02:56:40.755Z,17.75
2023-02-14T02:59:45.336Z,18.02
2023-02-14T03:03:09.972Z,19.02
2023-02-14T03:06:12.068Z,20.45
2023-02-14T03:09:34.854Z,23.00
2023-02-14T03:12:55.417Z,22.00
2023-02-14T03:16:17.271Z,21.02
2023-02-14T03:19:52.307Z,22.17
2023-02-14T03:23:03.410Z,20.15
2023-02-14T03:26:15.535Z,20.35
2023-02-14T03:29:47.847Z,20.08
2023-02-14T03:33:06.616Z,19.27
2023-02-14T03:36:21.997Z,20.23
2023-02-14T03:40:01.901Z,19.83
2023-02-14T03:43:20.890Z,19.38
2023-02-14T03:46:25.865Z,20.08
2023-02-14T03:49:32.134Z,19.17
2023-02-14T03:52:36.806Z,21.92
2023-02-14T03:55:58.453Z,20.23
2023-02-14T03:59:09.006Z,20.90
2023-02-14T04:02:19.480Z,21.67
2023-02-14T04:05:26.727Z,25.33
2023-02-14T04:08:30.000Z,21.05
2023-02-14T04:11:35.155Z,22.35
2023-02-14T04:14:37.716Z,23.67
2023-02-14T04:17:58.868Z,22.50
2023-02-14T04:21:01.628Z,21.52
2023-02-14T04:24:04.102Z,21.90
2023-02-14T04:27:12.489Z,21.77
2023-02-14T04:30:18.018Z,21.70
2023-02-14T04:33:20.373Z,22.48
2023-02-14T04:36:22.489Z,23.10
2023-02-14T04:39:25.092Z,23.65
2023-02-14T04:42:27.434Z,24.77
2023-02-14T04:45:29.506Z,28.48
2023-02-14T04:48:31.614Z,36.30
2023-02-14T04:51:33.780Z,31.65
2023-02-14T04:54:35.881Z,27.08
2023-02-14T04:57:38.106Z,27.85
2023-02-14T05:00:40.308Z,24.17
2023-02-14T05:03:42.569Z,24.10
2023-02-14T05:06:44.821Z,24.65
2023-02-14T05:09:46.891Z,24.17
2023-02-14T05:12:49.140Z,24.38
2023-02-14T05:15:51.265Z,23.63
2023-02-14T05:18:53.569Z,23.83
2023-02-14T05:21:55.753Z,25.00
2023-02-14T05:24:58.037Z,24.35
2023-02-14T05:28:00.237Z,24.13
2023-02-14T05:31:03.072Z,24.70
2023-02-14T05:34:05.467Z,24.67
2023-02-14T05:37:07.688Z,27.50
2023-02-14T05:40:13.382Z,25.65
2023-02-14T05:43:15.565Z,24.92
2023-02-14T05:46:17.889Z,24.23
2023-02-14T05:49:20.191Z,25.00
2023-02-14T05:52:22.318Z,22.33
2023-02-14T05:55:26.268Z,23.77
2023-02-14T05:58:28.680Z,23.77
2023-02-14T06:01:30.956Z,23.83
2023-02-14T06:04:33.172Z,25.48
2023-02-14T06:07:35.328Z,22.77
2023-02-14T06:10:37.488Z,23.10
2023-02-14T06:13:41.515Z,23.50
2023-02-14T06:16:43.805Z,29.08
2023-02-14T06:19:46.144Z,24.95
2023-02-14T06:22:48.531Z,23.38
2023-02-14T06:25:50.728Z,23.73
2023-02-14T06:28:54.755Z,23.27
2023-02-14T06:31:56.920Z,27.27
2023-02-14T06:34:59.146Z,27.85
2023-02-14T06:38:01.253Z,29.52
2023-02-14T06:41:05.773Z,32.13
2023-02-14T06:44:10.442Z,30.73
2023-02-14T06:47:12.687Z,30.00
2023-02-14T06:50:14.941Z,27.95
2023-02-14T06:53:17.007Z,28.35
2023-02-14T06:56:19.092Z,28.88
2023-02-14T06:59:22.015Z,30.40
2023-02-14T07:02:25.102Z,33.35
2023-02-14T07:05:27.651Z,33.13
2023-02-14T07:08:29.938Z,31.38
2023-02-14T07:11:32.317Z,42.58
2023-02-14T07:14:34.378Z,39.80
2023-02-14T07:17:36.573Z,41.17
2023-02-14T07:20:38.838Z,41.53
2023-02-14T07:23:41.079Z,40.70
2023-02-14T07:26:43.264Z,41.20
2023-02-14T07:29:45.351Z,42.00
2023-02-14T07:32:47.431Z,41.63
2023-02-14T07:35:51.670Z,40.85
2023-02-14T07:38:55.244Z,42.47
2023-02-14T07:41:57.452Z,43.05
2023-02-14T07:45:00.520Z,40.38
2023-02-14T07:48:05.991Z,51.60
2023-02-14T07:51:08.281Z,36.28
2023-02-14T07:54:10.373Z,43.70
2023-02-14T07:57:12.540Z,43.25
2023-02-14T08:00:15.140Z,44.70
2023-02-14T08:03:17.428Z,33.40
2023-02-14T08:06:19.947Z,29.55
2023-02-14T08:09:25.046Z,28.42
2023-02-14T08:12:46.295Z,63.80
2023-02-14T08:16:06.748Z,35.65
2023-02-14T08:19:09.276Z,47.00
2023-02-14T08:22:11.441Z,38.58
2023-02-14T08:25:13.596Z,57.22
2023-02-14T08:28:16.046Z,62.95
2023-02-14T08:31:35.664Z,39.33
2023-02-14T08:34:38.861Z,34.05
2023-02-14T08:37:41.267Z,29.85
2023-02-14T08:40:43.701Z,31.70
2023-02-14T08:43:46.107Z,30.58
2023-02-14T08:46:48.366Z,28.10
2023-02-14T08:49:50.575Z,27.17
2023-02-14T08:52:52.688Z,28.75
2023-02-14T08:55:55.090Z,27.85
2023-02-14T08:58:57.408Z,31.73
2023-02-14T09:01:59.844Z,44.58
2023-02-14T09:05:02.061Z,41.47
2023-02-14T09:08:04.477Z,39.97
2023-02-14T09:11:08.903Z,40.20
2023-02-14T09:14:11.333Z,38.28
2023-02-14T09:17:14.840Z,33.63
2023-02-14T09:20:17.009Z,29.75
2023-02-14T09:23:19.272Z,34.80
2023-02-14T09:26:21.837Z,33.92
2023-02-14T09:29:28.468Z,35.05
2023-02-14T09:32:31.608Z,34.15
2023-02-14T09:35:33.837Z,33.20
2023-02-14T09:38:35.892Z,34.08
2023-02-14T09:41:41.214Z,36.47
2023-02-14T09:44:51.800Z,29.05
2023-02-14T09:48:06.347Z,31.45
2023-02-14T09:51:17.869Z,29.45
2023-02-14T09:54:26.302Z,30.80
2023-02-14T09:58:06.156Z,32.08
2023-02-14T10:01:18.733Z,34.70
2023-02-14T10:04:40.718Z,27.95
2023-02-14T10:07:58.047Z,28.98
2023-02-14T10:11:07.495Z,31.27
2023-02-14T10:14:18.233Z,31.35
2023-02-14T10:17:37.409Z,29.17
2023-02-14T10:20:44.424Z,27.83
2023-02-14T10:23:51.621Z,26.63
2023-02-14T10:26:58.243Z,24.17
2023-02-14T10:30:03.002Z,22.58
2023-02-14T10:33:16.943Z,24.70
2023-02-14T10:37:00.820Z,34.25
2023-02-14T10:40:23.930Z,23.50
2023-02-14T10:43:53.230Z,24.45
2023-02-14T10:47:04.429Z,22.20
2023-02-14T10:50:12.655Z,23.40
2023-02-14T10:53:29.442Z,21.85
2023-02-14T10:56:39.980Z,20.30
2023-02-14T11:00:00.854Z,21.58
2023-02-14T11:03:07.994Z,21.17
2023-02-14T11:06:10.932Z,21.27
2023-02-14T11:09:13.165Z,25.55
2023-02-14T11:12:33.386Z,21.77
2023-02-14T11:15:40.141Z,23.35
2023-02-14T11:18:42.755Z,23.00
2023-02-14T11:21:47.221Z,22.58
2023-02-14T11:24:49.435Z,23.73
2023-02-14T11:28:06.159Z,23.67
2023-02-14T11:31:09.465Z,21.98
2023-02-14T11:34:29.477Z,23.08
2023-02-14T11:37:39.687Z,20.25
2023-02-14T11:40:42.477Z,17.98
2023-02-14T11:43:45.640Z,20.00
2023-02-14T11:46:53.447Z,19.70
2023-02-14T11:50:01.211Z,27.23
2023-02-14T11:53:04.294Z,27.15
2023-02-14T11:56:06.866Z,26.83
2023-02-14T11:59:19.734Z,23.77
2023-02-14T12:02:41.392Z,20.48
2023-02-14T12:05:50.171Z,19.67
2023-02-14T12:08:52.340Z,19.10
2023-02-14T12:12:04.539Z,17.38
2023-02-14T12:15:23.200Z,19.23
2023-02-14T12:18:43.694Z,18.30
2023-02-14T12:24:59.487Z,20.10
2023-02-14T12:28:09.294Z,18.17
2023-02-14T12:34:17.650Z,16.25
2023-02-14T12:37:32.192Z,18.50
2023-02-14T12:41:13.023Z,17.33
2023-02-14T12:44:29.311Z,14.53
2023-02-14T12:47:31.370Z,15.88
2023-02-14T12:50:50.871Z,14.65
2023-02-14T12:54:02.036Z,15.85
2023-02-14T12:57:22.215Z,15.50
2023-02-14T13:00:36.326Z,15.85
2023-02-14T13:04:04.469Z,17.15
2023-02-14T13:07:12.382Z,16.00
2023-02-14T13:10:41.715Z,17.02
2023-02-14T13:14:04.483Z,17.55
2023-02-14T13:17:35.973Z,20.42
2023-02-14T13:20:50.609Z,16.55
2023-02-14T13:23:59.167Z,16.50
2023-02-14T13:27:05.838Z,14.55
2023-02-14T13:30:29.959Z,14.85
2023-02-14T13:33:43.606Z,16.23
2023-02-14T13:36:47.381Z,15.38
2023-02-14T13:39:59.473Z,16.67
2023-02-14T13:43:02.511Z,15.75
2023-02-14T13:46:04.966Z,16.90
2023-02-14T13:49:30.808Z,15.27
2023-02-14T13:52:49.573Z,15.35
2023-02-14T13:55:55.938Z,14.98
2023-02-14T13:59:05.881Z,14.23
2023-02-14T14:02:29.662Z,15.55
2023-02-14T14:05:42.798Z,15.00
2023-02-14T14:08:48.486Z,15.93
2023-02-14T14:11:51.493Z,15.07
2023-02-14T14:15:05.828Z,15.68
2023-02-14T14:18:13.768Z,14.23
2023-02-14T14:21:59.570Z,14.23
2023-02-14T14:25:05.401Z,14.32
2023-02-14T14:28:21.842Z,14.13
2023-02-14T14:31:24.143Z,14.23
2023-02-14T14:34:28.742Z,13.85
2023-02-14T14:37:56.917Z,14.90
2023-02-14T14:41:00.828Z,14.68
2023-02-14T14:44:06.729Z,15.25
2023-02-14T14:47:15.223Z,15.25
2023-02-14T14:50:22.751Z,15.68
2023-02-14T14:53:48.855Z,14.82
2023-02-14T14:56:59.381Z,15.40
2023-02-14T15:00:17.646Z,15.10
2023-02-14T15:03:29.861Z,15.23
2023-02-14T15:06:31.899Z,14.77
2023-02-14T15:09:34.088Z,17.05
2023-02-14T15:12:55.608Z,16.40
2023-02-14T15:15:58.815Z,15.20
2023-02-14T15:19:17.698Z,13.98
2023-02-14T15:22:27.449Z,14.80
2023-02-14T15:28:36.042Z,15.88
2023-02-14T15:31:40.905Z,16.75
2023-02-14T15:34:43.360Z,16.48
2023-02-14T15:37:47.021Z,14.75
2023-02-14T15:40:50.601Z,13.90
2023-02-14T15:43:54.913Z,14.55
2023-02-14T15:47:01.513Z,15.70
2023-02-14T15:50:09.950Z,15.05
2023-02-14T15:53:42.157Z,21.10
2023-02-14T15:56:49.096Z,27.35
2023-02-14T15:59:51.653Z,24.15
2023-02-14T16:03:10.102Z,16.92
2023-02-14T16:06:40.465Z,17.40
2023-02-14T16:09:42.999Z,15.20
2023-02-14T16:12:57.408Z,14.35
2023-02-14T16:16:06.968Z,15.43
2023-02-14T16:19:33.784Z,16.33
2023-02-14T16:22:36.421Z,15.63
2023-02-14T16:25:41.318Z,19.40
2023-02-14T16:28:44.021Z,18.40
2023-02-14T16:32:17.006Z,16.65
2023-02-14T16:35:21.703Z,16.98
2023-02-14T16:38:23.894Z,18.67
2023-02-14T16:41:29.005Z,16.27
2023-02-14T16:44:32.323Z,15.63
2023-02-14T16:47:35.278Z,16.20
2023-02-14T16:50:40.480Z,14.50
2023-02-14T16:53:44.098Z,14.75
2023-02-14T16:57:02.413Z,14.02
2023-02-14T17:00:07.045Z,15.00
2023-02-14T17:03:11.592Z,14.00
2023-02-14T17:06:20.912Z,14.07
2023-02-14T17:09:30.150Z,14.82
2023-02-14T17:12:41.467Z,14.73
2023-02-14T17:15:44.740Z,15.30
2023-02-14T17:18:50.549Z,15.90
2023-02-14T17:21:53.448Z,15.05
2023-02-14T17:24:57.169Z,14.45
2023-02-14T17:28:01.563Z,15.93
2023-02-14T17:31:06.696Z,15.55
2023-02-14T17:34:11.681Z,17.00
2023-02-14T17:37:14.710Z,16.20
2023-02-14T17:40:17.862Z,16.50
2023-02-14T17:43:21.173Z,15.70
2023-02-14T17:46:25.611Z,14.90
2023-02-14T17:49:28.876Z,32.72
2023-02-14T17:52:32.608Z,21.20
2023-02-14T17:55:37.038Z,19.60
2023-02-14T17:58:40.243Z,19.63
2023-02-14T18:01:43.474Z,17.52
2023-02-14T18:04:48.476Z,18.85
2023-02-14T18:07:52.855Z,22.58
2023-02-14T18:10:58.310Z,32.67
2023-02-14T18:14:02.226Z,22.42
2023-02-14T18:17:06.527Z,23.70
2023-02-14T18:20:10.466Z,22.67
2023-02-14T18:23:14.240Z,22.83
2023-02-14T18:26:18.739Z,22.10
2023-02-14T18:29:21.990Z,21.60
2023-02-14T18:32:27.197Z,26.58
2023-02-14T18:35:31.429Z,23.70
2023-02-14T18:38:36.233Z,24.35
2023-02-14T18:41:39.675Z,22.92
2023-02-14T18:44:44.032Z,23.67
2023-02-14T18:47:47.841Z,21.35
2023-02-14T18:50:55.283Z,20.90
2023-02-14T18:54:02.024Z,19.73
2023-02-14T18:57:05.953Z,20.08
2023-02-14T19:00:12.564Z,23.73
2023-02-14T19:03:20.138Z,24.70
2023-02-14T19:06:23.972Z,22.80
2023-02-14T19:09:29.196Z,20.25
2023-02-14T19:12:39.165Z,17.90
2023-02-14T19:15:44.327Z,16.45
2023-02-14T19:18:50.806Z,18.67
2023-02-14T19:21:59.529Z,20.88
2023-02-14T19:25:05.932Z,22.05
2023-02-14T19:28:13.136Z,22.08
2023-02-14T19:31:17.510Z,19.25
2023-02-14T19:34:29.746Z,19.42
2023-02-14T19:37:33.710Z,20.88
2023-02-14T19:40:37.326Z,24.35
2023-02-14T19:43:41.055Z,21.92
2023-02-14T19:46:47.515Z,22.98
2023-02-14T19:49:51.664Z,21.10
2023-02-14T19:52:55.663Z,24.42
2023-02-14T19:56:04.166Z,22.23
2023-02-14T19:59:10.148Z,20.75
2023-02-14T20:02:22.618Z,19.55
2023-02-14T20:05:29.361Z,22.48
2023-02-14T20:08:33.226Z,23.60
2023-02-14T20:11:52.965Z,22.60
2023-02-14T20:15:00.147Z,20.70
2023-02-14T20:18:06.954Z,21.05
2023-02-14T20:21:18.522Z,20.40
2023-02-14T20:24:25.600Z,20.35
2023-02-14T20:27:30.224Z,21.25
2023-02-14T20:30:36.652Z,20.27
2023-02-14T20:33:43.085Z,21.00
2023-02-14T20:36:53.866Z,18.48
2023-02-14T20:39:58.212Z,19.23
2023-02-14T20:43:02.194Z,19.23
2023-02-14T20:46:07.664Z,23.25
2023-02-14T20:49:12.440Z,23.10
2023-02-14T20:52:18.582Z,24.63
2023-02-14T20:55:22.832Z,21.00
2023-02-14T20:58:26.865Z,21.75
2023-02-14T21:01:30.903Z,21.00
2023-02-14T21:04:34.804Z,20.75
2023-02-14T21:07:39.209Z,20.00
2023-02-14T21:10:42.705Z,20.33
2023-02-14T21:13:46.348Z,18.63
2023-02-14T21:16:49.998Z,16.10
2023-02-14T21:19:56.519Z,18.58
2023-02-14T21:23:00.510Z,19.95
2023-02-14T21:26:04.779Z,15.60
2023-02-14T21:29:09.667Z,16.63
2023-02-14T21:32:16.269Z,18.58
2023-02-14T21:35:20.442Z,20.85
2023-02-14T21:38:24.387Z,23.35
2023-02-14T21:41:35.631Z,20.95
2023-02-14T21:44:57.481Z,19.88
2023-02-14T21:48:19.284Z,17.60
2023-02-14T21:51:24.091Z,19.38
2023-02-14T21:54:28.270Z,20.48
2023-02-14T21:57:31.979Z,19.38
2023-02-14T22:00:34.694Z,20.00
2023-02-14T22:03:38.647Z,18.73
2023-02-14T22:06:42.779Z,19.48
2023-02-14T22:09:45.159Z,17.30
2023-02-14T22:12:48.272Z,17.25
2023-02-14T22:15:51.679Z,16.52
2023-02-14T22:18:55.352Z,17.02
2023-02-14T22:21:57.939Z,15.57
2023-02-14T22:25:00.330Z,17.27
2023-02-14T22:28:02.595Z,16.52
2023-02-14T22:31:05.412Z,16.55
2023-02-14T22:34:10.054Z,16.90
2023-02-14T22:37:12.171Z,17.80
2023-02-14T22:40:14.455Z,17.60
2023-02-14T22:43:16.789Z,17.73
2023-02-14T22:46:24.747Z,17.25
2023-02-14T22:49:27.042Z,17.42
2023-02-14T22:52:29.469Z,16.80
2023-02-14T22:55:31.802Z,17.27
2023-02-14T22:58:33.901Z,17.48
2023-02-14T23:01:36.611Z,17.42
2023-02-14T23:04:38.748Z,17.42
2023-02-14T23:07:41.077Z,17.60
2023-02-14T23:10:43.655Z,17.95
2023-02-14T23:14:05.387Z,17.75
2023-02-14T23:17:16.288Z,17.70
2023-02-14T23:20:36.694Z,18.13
2023-02-14T23:26:40.798Z,16.73
2023-02-14T23:29:43.614Z,18.23
2023-02-14T23:32:45.980Z,17.17
2023-02-14T23:35:48.123Z,17.77
2023-02-14T23:38:50.284Z,20.23
2023-02-14T23:41:52.883Z,21.40
2023-02-14T23:45:15.056Z,20.25
2023-02-14T23:48:17.213Z,18.98
2023-02-14T23:51:19.788Z,17.92
2023-02-14T23:54:23.272Z,17.08
2023-02-14T23:57:25.458Z,19.70
